PWSweather.com
Personal Weather Stations
Station Observations
AKOUDA4022
Sousse, AkoudaTN 4022

SousseAkoudaTN 4022

Lat: 35.881801, Lon: 10.566187

Elevation: 200

Station Type: TFA Nexus

http://www.soussewetter.de/meteo/

Latest ConditionsUpdated 8:40:00 AM GMT+01:01 Friday, Jan 19, 2018
Currently Today's Max Today's Min Today's Average
Temperature 54.9°F12.7°C 54.9°F12.7°C 48.4°F9.1°C 50.7°F10.4°C
Dew Point 42.5°F5.8°C 42.6°F5.9°C 39.4°F4.1°C 41.2°F5.1°C
Winds 3.5 mph NW5.6 kmh NW 3.9 mph WSW6.3 kmh WSW - 2.8 mph 4.5 kmh
Wind Gusts 6.9 mph11.1 kmh 6.9 mph11.1 kmh - -
Humidity 63% 73% 63% 70%
Pressure 30.08 in1018.6 mb 30.26 in1024.7 mb 30.08 in1018.6 mb -
Hour Temp Dew Point Humidity Winds Wind Gusts Pressure Precip Precip Rate Daily Precip Total
08:40 AM 54.9°F12.7°C 42.5°F5.8°C 63% 3.5 mph NW5.6 kmh NW 6.9 mph11.1 kmh 30.08 in1018.6 mb 0.00 in0.0 mm 0.00 in0.0 mm 0.00 in0.0 mm
08:30 AM 54.1°F12.3°C 42.6°F5.9°C 65% 2.8 mph SW4.5 kmh SW 3.8 mph6.1 kmh 30.08 in1018.6 mb 0.00 in0.0 mm 0.00 in0.0 mm 0.00 in0.0 mm
08:20 AM 53.2°F11.8°C 42.2°F5.7°C 66% 3.9 mph WSW6.3 kmh WSW 6.1 mph9.8 kmh 30.08 in1018.6 mb 0.00 in0.0 mm 0.00 in0.0 mm 0.00 in0.0 mm
08:10 AM 52.3°F11.3°C 41.7°F5.4°C 67% 3.5 mph SW5.6 kmh SW 5.3 mph8.5 kmh 30.08 in1018.6 mb 0.00 in0.0 mm 0.00 in0.0 mm 0.00 in0.0 mm
08:00 AM 51.3°F10.7°C 41.4°F5.2°C 69% 3.6 mph WSW5.8 kmh WSW 4.4 mph7.1 kmh 30.09 in1019.0 mb 0.00 in0.0 mm 0.00 in0.0 mm 0.00 in0.0 mm
07:50 AM 50.0°F10.0°C 40.6°F4.8°C 70% 3.6 mph WSW5.8 kmh WSW 4.5 mph7.2 kmh 30.09 in1019.0 mb 0.00 in0.0 mm 0.00 in0.0 mm 0.00 in0.0 mm
07:40 AM 49.1°F9.5°C 40.1°F4.5°C 71% 3.4 mph W5.5 kmh W 4.3 mph6.9 kmh 30.10 in1019.3 mb 0.00 in0.0 mm 0.00 in0.0 mm 0.00 in0.0 mm
07:30 AM 48.4°F9.1°C 39.4°F4.1°C 71% 3.8 mph WSW6.1 kmh WSW 5.9 mph9.5 kmh 30.10 in1019.3 mb 0.00 in0.0 mm 0.00 in0.0 mm 0.00 in0.0 mm
07:20 AM 48.4°F9.1°C 39.4°F4.1°C 71% 3.9 mph WSW6.3 kmh WSW 4.9 mph7.9 kmh 30.10 in1019.3 mb 0.00 in0.0 mm 0.00 in0.0 mm 0.00 in0.0 mm
07:10 AM 48.6°F9.2°C 39.6°F4.2°C 71% 3.7 mph WSW6.0 kmh WSW 4.1 mph6.6 kmh 30.10 in1019.3 mb 0.00 in0.0 mm 0.00 in0.0 mm 0.00 in0.0 mm
07:00 AM 48.4°F9.1°C 39.4°F4.1°C 71% 3.4 mph WSW5.5 kmh WSW 5.0 mph8.0 kmh 30.10 in1019.3 mb 0.00 in0.0 mm 0.00 in0.0 mm 0.00 in0.0 mm
06:50 AM 48.6°F9.2°C 39.6°F4.2°C 71% 3.5 mph WNW5.6 kmh WNW 4.9 mph7.9 kmh 30.10 in1019.3 mb 0.00 in0.0 mm 0.00 in0.0 mm 0.00 in0.0 mm
06:40 AM 48.7°F9.3°C 39.8°F4.3°C 71% 2.9 mph SSW4.7 kmh SSW 3.3 mph5.3 kmh 30.10 in1019.3 mb 0.00 in0.0 mm 0.00 in0.0 mm 0.00 in0.0 mm
06:30 AM 48.9°F9.4°C 40.3°F4.6°C 72% 3.1 mph W5.0 kmh W 3.0 mph4.8 kmh 30.10 in1019.3 mb 0.00 in0.0 mm 0.00 in0.0 mm 0.00 in0.0 mm
06:20 AM 48.9°F9.4°C 40.3°F4.6°C 72% 3.2 mph WSW5.1 kmh WSW 4.2 mph6.8 kmh 30.10 in1019.3 mb 0.00 in0.0 mm 0.00 in0.0 mm 0.00 in0.0 mm
06:10 AM 49.1°F9.5°C 40.5°F4.7°C 72% 3.1 mph SW5.0 kmh SW 4.5 mph7.2 kmh 30.10 in1019.3 mb 0.00 in0.0 mm 0.00 in0.0 mm 0.00 in0.0 mm
06:00 AM 49.1°F9.5°C 40.5°F4.7°C 72% 3.1 mph SSW5.0 kmh SSW 3.8 mph6.1 kmh 30.10 in1019.3 mb 0.00 in0.0 mm 0.00 in0.0 mm 0.00 in0.0 mm
05:50 AM 49.3°F9.6°C 40.6°F4.8°C 72% 3.0 mph SW4.8 kmh SW 3.4 mph5.5 kmh 30.10 in1019.3 mb 0.00 in0.0 mm 0.00 in0.0 mm 0.00 in0.0 mm
05:40 AM 49.3°F9.6°C 40.6°F4.8°C 72% 3.3 mph WSW5.3 kmh WSW 4.0 mph6.4 kmh 30.10 in1019.3 mb 0.00 in0.0 mm 0.00 in0.0 mm 0.00 in0.0 mm
05:30 AM 49.5°F9.7°C 40.8°F4.9°C 72% 3.2 mph SW5.1 kmh SW 4.5 mph7.2 kmh 30.10 in1019.3 mb 0.00 in0.0 mm 0.00 in0.0 mm 0.00 in0.0 mm
05:20 AM 49.5°F9.7°C 41.2°F5.1°C 73% 3.4 mph WSW5.5 kmh WSW 4.8 mph7.7 kmh 30.11 in1019.6 mb 0.00 in0.0 mm 0.00 in0.0 mm 0.00 in0.0 mm
05:10 AM 49.5°F9.7°C 41.2°F5.1°C 73% 2.7 mph WSW4.3 kmh WSW 4.1 mph6.6 kmh 30.11 in1019.6 mb 0.00 in0.0 mm 0.00 in0.0 mm 0.00 in0.0 mm
05:00 AM 49.6°F9.8°C 41.4°F5.2°C 73% 3.0 mph WSW4.8 kmh WSW 4.0 mph6.4 kmh 30.12 in1020.0 mb 0.00 in0.0 mm 0.00 in0.0 mm 0.00 in0.0 mm
04:50 AM 49.6°F9.8°C 41.4°F5.2°C 73% 2.9 mph W4.7 kmh W 3.1 mph5.0 kmh 30.12 in1020.0 mb 0.00 in0.0 mm 0.00 in0.0 mm 0.00 in0.0 mm
04:40 AM 49.6°F9.8°C 41.0°F5.0°C 72% 2.6 mph WSW4.2 kmh WSW 4.4 mph7.1 kmh 30.14 in1020.7 mb 0.00 in0.0 mm 0.00 in0.0 mm 0.00 in0.0 mm
04:30 AM 49.8°F9.9°C 41.2°F5.1°C 72% 2.4 mph SW3.9 kmh SW 4.0 mph6.4 kmh 30.14 in1020.7 mb 0.00 in0.0 mm 0.00 in0.0 mm 0.00 in0.0 mm
04:20 AM 50.0°F10.0°C 41.3°F5.2°C 72% 2.3 mph WSW3.7 kmh WSW 3.5 mph5.6 kmh 30.15 in1021.0 mb 0.00 in0.0 mm 0.00 in0.0 mm 0.00 in0.0 mm
04:10 AM 50.0°F10.0°C 41.3°F5.2°C 72% 2.8 mph W4.5 kmh W 3.8 mph6.1 kmh 30.15 in1021.0 mb 0.00 in0.0 mm 0.00 in0.0 mm 0.00 in0.0 mm
04:00 AM 50.2°F10.1°C 41.5°F5.3°C 72% 2.6 mph SSW4.2 kmh SSW 3.7 mph6.0 kmh 30.16 in1021.3 mb 0.00 in0.0 mm 0.00 in0.0 mm 0.00 in0.0 mm
03:50 AM 50.4°F10.2°C 41.7°F5.4°C 72% 2.6 mph SW4.2 kmh SW 5.2 mph8.4 kmh 30.16 in1021.3 mb 0.00 in0.0 mm 0.00 in0.0 mm 0.00 in0.0 mm
03:40 AM 50.4°F10.2°C 41.7°F5.4°C 72% 2.8 mph WSW4.5 kmh WSW 3.4 mph5.5 kmh 30.16 in1021.3 mb 0.00 in0.0 mm 0.00 in0.0 mm 0.00 in0.0 mm
03:30 AM 50.5°F10.3°C 41.9°F5.5°C 72% 2.5 mph SW4.0 kmh SW 4.6 mph7.4 kmh 30.16 in1021.3 mb 0.00 in0.0 mm 0.00 in0.0 mm 0.00 in0.0 mm
03:20 AM 50.5°F10.3°C 41.5°F5.3°C 71% 1.8 mph WSW2.9 kmh WSW 2.8 mph4.5 kmh 30.17 in1021.7 mb 0.00 in0.0 mm 0.00 in0.0 mm 0.00 in0.0 mm
03:10 AM 50.9°F10.5°C 41.8°F5.4°C 71% 1.4 mph SW2.3 kmh SW 1.7 mph2.7 kmh 30.17 in1021.7 mb 0.00 in0.0 mm 0.00 in0.0 mm 0.00 in0.0 mm
03:00 AM 50.9°F10.5°C 41.8°F5.4°C 71% 1.4 mph WNW2.3 kmh WNW 2.1 mph3.4 kmh 30.18 in1022.0 mb 0.00 in0.0 mm 0.00 in0.0 mm 0.00 in0.0 mm
02:50 AM 50.9°F10.5°C 41.8°F5.4°C 71% 1.7 mph WSW2.7 kmh WSW 2.3 mph3.7 kmh 30.18 in1022.0 mb 0.00 in0.0 mm 0.00 in0.0 mm 0.00 in0.0 mm
02:40 AM 51.3°F10.7°C 42.2°F5.7°C 71% 2.3 mph WSW3.7 kmh WSW 3.3 mph5.3 kmh 30.19 in1022.4 mb 0.00 in0.0 mm 0.00 in0.0 mm 0.00 in0.0 mm
02:30 AM 51.3°F10.7°C 41.8°F5.4°C 70% 2.5 mph W4.0 kmh W 3.0 mph4.8 kmh 30.19 in1022.4 mb 0.00 in0.0 mm 0.00 in0.0 mm 0.00 in0.0 mm
02:20 AM 51.3°F10.7°C 41.8°F5.4°C 70% 2.3 mph WSW3.7 kmh WSW 3.3 mph5.3 kmh 30.20 in1022.7 mb 0.00 in0.0 mm 0.00 in0.0 mm 0.00 in0.0 mm
02:10 AM 51.6°F10.9°C 42.2°F5.7°C 70% 2.4 mph W3.9 kmh W 3.3 mph5.3 kmh 30.20 in1022.7 mb 0.00 in0.0 mm 0.00 in0.0 mm 0.00 in0.0 mm
02:00 AM 51.6°F10.9°C 42.2°F5.7°C 70% 1.4 mph SSE2.3 kmh SSE 2.0 mph3.2 kmh 30.20 in1022.7 mb 0.00 in0.0 mm 0.00 in0.0 mm 0.00 in0.0 mm
01:50 AM 51.8°F11.0°C 42.3°F5.7°C 70% 2.5 mph SW4.0 kmh SW 2.8 mph4.5 kmh 30.20 in1022.7 mb 0.00 in0.0 mm 0.00 in0.0 mm 0.00 in0.0 mm
01:40 AM 51.8°F11.0°C 42.0°F5.6°C 69% 3.1 mph WSW5.0 kmh WSW 3.5 mph5.6 kmh 30.21 in1023.0 mb 0.00 in0.0 mm 0.00 in0.0 mm 0.00 in0.0 mm
01:30 AM 51.8°F11.0°C 41.6°F5.3°C 68% 2.8 mph WNW4.5 kmh WNW 3.0 mph4.8 kmh 30.21 in1023.0 mb 0.00 in0.0 mm 0.00 in0.0 mm 0.00 in0.0 mm
01:20 AM 52.0°F11.1°C 41.8°F5.4°C 68% 2.9 mph W4.7 kmh W 3.9 mph6.3 kmh 30.22 in1023.4 mb 0.00 in0.0 mm 0.00 in0.0 mm 0.00 in0.0 mm
01:10 AM 52.2°F11.2°C 41.5°F5.3°C 67% 2.7 mph SW4.3 kmh SW 2.1 mph3.4 kmh 30.22 in1023.4 mb 0.00 in0.0 mm 0.00 in0.0 mm 0.00 in0.0 mm
01:00 AM 52.3°F11.3°C 41.7°F5.4°C 67% 2.8 mph SW4.5 kmh SW 6.5 mph10.5 kmh 30.23 in1023.7 mb 0.00 in0.0 mm 0.00 in0.0 mm 0.00 in0.0 mm
12:50 AM 52.3°F11.3°C 41.3°F5.2°C 66% 2.6 mph WSW4.2 kmh WSW 4.3 mph6.9 kmh 30.23 in1023.7 mb 0.00 in0.0 mm 0.00 in0.0 mm 0.00 in0.0 mm
12:40 AM 52.7°F11.5°C 41.7°F5.4°C 66% 2.4 mph WNW3.9 kmh WNW 5.2 mph8.4 kmh 30.24 in1024.0 mb 0.00 in0.0 mm 0.00 in0.0 mm 0.00 in0.0 mm
12:30 AM 52.7°F11.5°C 41.3°F5.2°C 65% 2.5 mph SSW4.0 kmh SSW 2.3 mph3.7 kmh 30.24 in1024.0 mb 0.00 in0.0 mm 0.00 in0.0 mm 0.00 in0.0 mm
12:20 AM 52.9°F11.6°C 41.4°F5.2°C 65% 1.7 mph SW2.7 kmh SW 1.9 mph3.1 kmh 30.25 in1024.4 mb 0.00 in0.0 mm 0.00 in0.0 mm 0.00 in0.0 mm
12:10 AM 53.2°F11.8°C 41.4°F5.2°C 64% 2.6 mph SW4.2 kmh SW 2.9 mph4.7 kmh 30.25 in1024.4 mb 0.00 in0.0 mm 0.00 in0.0 mm 0.00 in0.0 mm
12:00 AM 53.2°F11.8°C 41.4°F5.2°C 64% 2.4 mph SW3.9 kmh SW 2.9 mph4.7 kmh 30.26 in1024.7 mb 0.00 in0.0 mm 0.00 in0.0 mm 0.00 in0.0 mm